sensor_id;sensor_type;location;lat;lon;timestamp;temperature;humidity
4787;DHT22;62338;48.832;9.422;2023-03-12T00:01:43;-2.40;1.00
4787;DHT22;62338;48.832;9.422;2023-03-12T00:03:45;-2.40;1.00
4787;DHT22;62338;48.832;9.422;2023-03-12T00:05:47;-2.40;1.00
4787;DHT22;62338;48.832;9.422;2023-03-12T00:07:49;-2.50;1.00
4787;DHT22;62338;48.832;9.422;2023-03-12T00:09:51;-2.40;1.00
4787;DHT22;62338;48.832;9.422;2023-03-12T00:11:53;-2.40;1.00
4787;DHT22;62338;48.832;9.422;2023-03-12T00:13:57;-2.50;1.00
4787;DHT22;62338;48.832;9.422;2023-03-12T00:16:12;-2.50;1.00
4787;DHT22;62338;48.832;9.422;2023-03-12T00:18:15;-2.50;1.00
4787;DHT22;62338;48.832;9.422;2023-03-12T00:20:17;-2.50;1.00
4787;DHT22;62338;48.832;9.422;2023-03-12T00:22:19;-2.50;1.00
4787;DHT22;62338;48.832;9.422;2023-03-12T00:24:23;-2.50;1.00
4787;DHT22;62338;48.832;9.422;2023-03-12T00:26:25;-2.50;1.00
4787;DHT22;62338;48.832;9.422;2023-03-12T00:28:26;-2.50;1.00
4787;DHT22;62338;48.832;9.422;2023-03-12T00:30:28;-2.60;1.00
4787;DHT22;62338;48.832;9.422;2023-03-12T00:32:34;-2.60;1.00
4787;DHT22;62338;48.832;9.422;2023-03-12T00:34:36;-2.60;1.00
4787;DHT22;62338;48.832;9.422;2023-03-12T00:36:38;-2.60;1.00
4787;DHT22;62338;48.832;9.422;2023-03-12T00:38:42;-2.60;1.00
4787;DHT22;62338;48.832;9.422;2023-03-12T00:40:44;-2.50;1.00
4787;DHT22;62338;48.832;9.422;2023-03-12T00:42:46;-2.50;1.00
4787;DHT22;62338;48.832;9.422;2023-03-12T00:44:47;-2.60;1.00
4787;DHT22;62338;48.832;9.422;2023-03-12T00:46:49;-2.60;1.00
4787;DHT22;62338;48.832;9.422;2023-03-12T00:48:51;-2.60;1.00
4787;DHT22;62338;48.832;9.422;2023-03-12T00:50:53;-2.60;1.00
4787;DHT22;62338;48.832;9.422;2023-03-12T00:52:54;-2.60;1.00
4787;DHT22;62338;48.832;9.422;2023-03-12T00:54:56;-2.60;1.00
4787;DHT22;62338;48.832;9.422;2023-03-12T00:56:59;-2.70;1.00
4787;DHT22;62338;48.832;9.422;2023-03-12T00:59:01;-2.60;1.00
4787;DHT22;62338;48.832;9.422;2023-03-12T01:01:03;-2.70;1.00
4787;DHT22;62338;48.832;9.422;2023-03-12T01:03:05;-2.60;1.00
4787;DHT22;62338;48.832;9.422;2023-03-12T01:05:10;-2.60;1.00
4787;DHT22;62338;48.832;9.422;2023-03-12T01:07:12;-2.60;1.00
4787;DHT22;62338;48.832;9.422;2023-03-12T01:09:13;-2.60;1.00
4787;DHT22;62338;48.832;9.422;2023-03-12T01:11:18;-2.60;1.00
4787;DHT22;62338;48.832;9.422;2023-03-12T01:13:20;-2.60;1.00
4787;DHT22;62338;48.832;9.422;2023-03-12T01:15:22;-2.50;1.00
4787;DHT22;62338;48.832;9.422;2023-03-12T01:17:24;-2.50;1.00
4787;DHT22;62338;48.832;9.422;2023-03-12T01:19:26;-2.50;1.00
4787;DHT22;62338;48.832;9.422;2023-03-12T01:21:29;-2.40;1.00
4787;DHT22;62338;48.832;9.422;2023-03-12T01:23:31;-2.20;1.00
4787;DHT22;62338;48.832;9.422;2023-03-12T01:25:33;-2.10;1.00
4787;DHT22;62338;48.832;9.422;2023-03-12T01:27:35;-2.00;99.90
4787;DHT22;62338;48.832;9.422;2023-03-12T01:29:37;-1.90;99.90
4787;DHT22;62338;48.832;9.422;2023-03-12T01:31:38;-1.90;99.90
4787;DHT22;62338;48.832;9.422;2023-03-12T01:33:41;-2.00;99.90
4787;DHT22;62338;48.832;9.422;2023-03-12T01:35:43;-2.00;99.90
4787;DHT22;62338;48.832;9.422;2023-03-12T01:37:45;-2.00;99.90
4787;DHT22;62338;48.832;9.422;2023-03-12T01:39:47;-2.00;99.90
4787;DHT22;62338;48.832;9.422;2023-03-12T01:41:48;-1.90;99.90
4787;DHT22;62338;48.832;9.422;2023-03-12T01:43:50;-1.80;1.00
4787;DHT22;62338;48.832;9.422;2023-03-12T01:46:30;-1.70;1.00
4787;DHT22;62338;48.832;9.422;2023-03-12T01:48:39;-1.70;1.00
4787;DHT22;62338;48.832;9.422;2023-03-12T01:50:42;-1.60;1.00
4787;DHT22;62338;48.832;9.422;2023-03-12T01:52:44;-1.40;99.90
4787;DHT22;62338;48.832;9.422;2023-03-12T01:56:56;-1.30;99.90
4787;DHT22;62338;48.832;9.422;2023-03-12T01:59:03;-1.20;99.90
4787;DHT22;62338;48.832;9.422;2023-03-12T02:01:06;-1.10;99.90
4787;DHT22;62338;48.832;9.422;2023-03-12T02:03:09;-1.10;99.90
4787;DHT22;62338;48.832;9.422;2023-03-12T02:07:28;-0.90;99.90
4787;DHT22;62338;48.832;9.422;2023-03-12T02:09:35;-0.80;99.90
4787;DHT22;62338;48.832;9.422;2023-03-12T02:11:38;-0.80;99.90
4787;DHT22;62338;48.832;9.422;2023-03-12T02:13:40;-0.70;99.90
4787;DHT22;62338;48.832;9.422;2023-03-12T02:15:42;-0.70;90.30
4787;DHT22;62338;48.832;9.422;2023-03-12T02:17:44;-0.70;96.80
4787;DHT22;62338;48.832;9.422;2023-03-12T02:20:01;-0.60;88.10
4787;DHT22;62338;48.832;9.422;2023-03-12T02:22:10;-0.60;61.50
4787;DHT22;62338;48.832;9.422;2023-03-12T02:26:34;-0.70;99.90
4787;DHT22;62338;48.832;9.422;2023-03-12T02:28:38;-0.70;99.90
4787;DHT22;62338;48.832;9.422;2023-03-12T02:30:47;-0.70;99.90
4787;DHT22;62338;48.832;9.422;2023-03-12T02:32:50;-0.60;99.90
4787;DHT22;62338;48.832;9.422;2023-03-12T02:34:55;-0.60;99.90
4787;DHT22;62338;48.832;9.422;2023-03-12T02:36:57;-0.60;99.90
4787;DHT22;62338;48.832;9.422;2023-03-12T02:38:59;-0.50;99.90
4787;DHT22;62338;48.832;9.422;2023-03-12T02:41:14;-0.60;99.90
4787;DHT22;62338;48.832;9.422;2023-03-12T02:43:18;-0.60;99.90
4787;DHT22;62338;48.832;9.422;2023-03-12T02:45:21;-0.50;99.90
4787;DHT22;62338;48.832;9.422;2023-03-12T02:47:23;-0.50;99.90
4787;DHT22;62338;48.832;9.422;2023-03-12T02:49:27;-0.50;99.90
4787;DHT22;62338;48.832;9.422;2023-03-12T02:51:30;-0.50;99.90
4787;DHT22;62338;48.832;9.422;2023-03-12T02:53:32;-0.50;96.00
4787;DHT22;62338;48.832;9.422;2023-03-12T02:55:34;-0.40;37.00
4787;DHT22;62338;48.832;9.422;2023-03-12T02:57:37;-0.40;49.70
4787;DHT22;62338;48.832;9.422;2023-03-12T02:59:39;-0.40;1.00
4787;DHT22;62338;48.832;9.422;2023-03-12T03:01:41;-0.30;1.00
4787;DHT22;62338;48.832;9.422;2023-03-12T03:03:43;-0.30;1.00
4787;DHT22;62338;48.832;9.422;2023-03-12T03:05:45;-0.30;1.00
4787;DHT22;62338;48.832;9.422;2023-03-12T03:07:47;-0.30;1.00
4787;DHT22;62338;48.832;9.422;2023-03-12T03:09:49;-0.30;1.00
4787;DHT22;62338;48.832;9.422;2023-03-12T03:11:50;-0.20;1.00
4787;DHT22;62338;48.832;9.422;2023-03-12T03:13:53;-0.20;1.00
4787;DHT22;62338;48.832;9.422;2023-03-12T03:15:55;-0.20;1.00
4787;DHT22;62338;48.832;9.422;2023-03-12T03:17:58;-0.10;1.00
4787;DHT22;62338;48.832;9.422;2023-03-12T03:20:04;-0.10;1.00
4787;DHT22;62338;48.832;9.422;2023-03-12T03:22:09;-0.20;1.00
4787;DHT22;62338;48.832;9.422;2023-03-12T03:24:11;-0.20;1.00
4787;DHT22;62338;48.832;9.422;2023-03-12T03:26:14;-0.30;1.00
4787;DHT22;62338;48.832;9.422;2023-03-12T03:28:16;-0.30;1.00
4787;DHT22;62338;48.832;9.422;2023-03-12T03:30:18;-0.30;1.00
4787;DHT22;62338;48.832;9.422;2023-03-12T03:32:21;-0.30;1.00
4787;DHT22;62338;48.832;9.422;2023-03-12T03:34:23;-0.30;1.00
4787;DHT22;62338;48.832;9.422;2023-03-12T03:36:25;-0.30;1.00
4787;DHT22;62338;48.832;9.422;2023-03-12T03:38:28;-0.30;1.00
4787;DHT22;62338;48.832;9.422;2023-03-12T03:40:30;-0.20;1.00
4787;DHT22;62338;48.832;9.422;2023-03-12T03:42:32;-0.20;1.00
4787;DHT22;62338;48.832;9.422;2023-03-12T03:44:34;-0.20;1.00
4787;DHT22;62338;48.832;9.422;2023-03-12T03:46:36;-0.20;1.00
4787;DHT22;62338;48.832;9.422;2023-03-12T03:48:38;-0.20;1.00
4787;DHT22;62338;48.832;9.422;2023-03-12T03:50:40;-0.20;1.00
4787;DHT22;62338;48.832;9.422;2023-03-12T03:52:42;-0.20;1.00
4787;DHT22;62338;48.832;9.422;2023-03-12T03:54:44;-0.20;1.00
4787;DHT22;62338;48.832;9.422;2023-03-12T03:56:46;-0.20;1.00
4787;DHT22;62338;48.832;9.422;2023-03-12T03:58:48;-0.30;1.00
4787;DHT22;62338;48.832;9.422;2023-03-12T04:00:50;-0.30;1.00
4787;DHT22;62338;48.832;9.422;2023-03-12T04:02:51;-0.30;1.00
4787;DHT22;62338;48.832;9.422;2023-03-12T04:04:56;-0.30;1.00
4787;DHT22;62338;48.832;9.422;2023-03-12T04:06:58;-0.20;1.00
4787;DHT22;62338;48.832;9.422;2023-03-12T04:08:59;-0.20;1.00
4787;DHT22;62338;48.832;9.422;2023-03-12T04:11:09;-0.10;1.00
4787;DHT22;62338;48.832;9.422;2023-03-12T04:13:11;-0.10;1.00
4787;DHT22;62338;48.832;9.422;2023-03-12T04:15:13;0.00;1.00
4787;DHT22;62338;48.832;9.422;2023-03-12T04:17:15;0.10;1.00
4787;DHT22;62338;48.832;9.422;2023-03-12T04:19:16;0.10;1.00
4787;DHT22;62338;48.832;9.422;2023-03-12T04:21:18;0.20;99.90
4787;DHT22;62338;48.832;9.422;2023-03-12T04:23:20;0.20;99.90
4787;DHT22;62338;48.832;9.422;2023-03-12T04:25:22;0.30;1.00
4787;DHT22;62338;48.832;9.422;2023-03-12T04:27:24;0.30;1.00
4787;DHT22;62338;48.832;9.422;2023-03-12T04:29:26;0.20;1.00
4787;DHT22;62338;48.832;9.422;2023-03-12T04:31:28;0.20;1.00
4787;DHT22;62338;48.832;9.422;2023-03-12T04:33:33;0.30;1.00
4787;DHT22;62338;48.832;9.422;2023-03-12T04:35:34;0.30;99.90
4787;DHT22;62338;48.832;9.422;2023-03-12T04:37:36;0.40;91.50
4787;DHT22;62338;48.832;9.422;2023-03-12T04:39:39;0.40;1.40
4787;DHT22;62338;48.832;9.422;2023-03-12T04:41:41;0.50;1.00
4787;DHT22;62338;48.832;9.422;2023-03-12T04:43:42;0.50;1.00
4787;DHT22;62338;48.832;9.422;2023-03-12T04:45:44;0.50;1.00
4787;DHT22;62338;48.832;9.422;2023-03-12T04:47:46;0.50;1.00
4787;DHT22;62338;48.832;9.422;2023-03-12T04:49:48;0.50;1.00
4787;DHT22;62338;48.832;9.422;2023-03-12T04:51:49;0.50;1.00
4787;DHT22;62338;48.832;9.422;2023-03-12T04:53:51;0.60;1.00
4787;DHT22;62338;48.832;9.422;2023-03-12T04:55:53;0.50;1.00
4787;DHT22;62338;48.832;9.422;2023-03-12T04:57:55;0.50;1.00
4787;DHT22;62338;48.832;9.422;2023-03-12T04:59:56;0.50;1.00
4787;DHT22;62338;48.832;9.422;2023-03-12T05:01:58;0.50;23.20
4787;DHT22;62338;48.832;9.422;2023-03-12T05:04:00;0.50;99.90
4787;DHT22;62338;48.832;9.422;2023-03-12T05:06:01;0.50;6.00
4787;DHT22;62338;48.832;9.422;2023-03-12T05:08:04;0.60;1.00
4787;DHT22;62338;48.832;9.422;2023-03-12T05:10:06;0.60;1.00
4787;DHT22;62338;48.832;9.422;2023-03-12T05:12:08;0.60;1.00
4787;DHT22;62338;48.832;9.422;2023-03-12T05:14:10;0.70;1.00
4787;DHT22;62338;48.832;9.422;2023-03-12T05:16:13;0.70;1.00
4787;DHT22;62338;48.832;9.422;2023-03-12T05:18:15;0.80;1.00
4787;DHT22;62338;48.832;9.422;2023-03-12T05:20:17;0.80;1.00
4787;DHT22;62338;48.832;9.422;2023-03-12T05:22:19;0.80;1.00
4787;DHT22;62338;48.832;9.422;2023-03-12T05:24:21;0.80;1.00
4787;DHT22;62338;48.832;9.422;2023-03-12T05:26:25;0.80;1.00
4787;DHT22;62338;48.832;9.422;2023-03-12T05:28:28;0.80;1.00
4787;DHT22;62338;48.832;9.422;2023-03-12T05:30:30;0.80;1.00
4787;DHT22;62338;48.832;9.422;2023-03-12T05:32:32;0.80;1.00
4787;DHT22;62338;48.832;9.422;2023-03-12T05:34:34;0.80;1.00
4787;DHT22;62338;48.832;9.422;2023-03-12T05:36:36;0.80;99.90
4787;DHT22;62338;48.832;9.422;2023-03-12T05:38:38;0.80;99.90
4787;DHT22;62338;48.832;9.422;2023-03-12T05:40:40;0.80;67.10
4787;DHT22;62338;48.832;9.422;2023-03-12T05:42:42;0.90;1.00
4787;DHT22;62338;48.832;9.422;2023-03-12T05:44:43;0.90;99.90
4787;DHT22;62338;48.832;9.422;2023-03-12T05:46:45;0.90;1.00
4787;DHT22;62338;48.832;9.422;2023-03-12T05:48:47;1.00;1.00
4787;DHT22;62338;48.832;9.422;2023-03-12T05:50:49;1.00;2.40
4787;DHT22;62338;48.832;9.422;2023-03-12T05:52:51;1.00;96.70
4787;DHT22;62338;48.832;9.422;2023-03-12T05:54:53;1.10;99.90
4787;DHT22;62338;48.832;9.422;2023-03-12T05:56:54;1.10;99.90
4787;DHT22;62338;48.832;9.422;2023-03-12T05:58:57;1.10;51.50
4787;DHT22;62338;48.832;9.422;2023-03-12T06:00:59;1.20;48.40
4787;DHT22;62338;48.832;9.422;2023-03-12T06:03:00;1.30;99.90
4787;DHT22;62338;48.832;9.422;2023-03-12T06:05:03;1.30;90.50
4787;DHT22;62338;48.832;9.422;2023-03-12T06:07:05;1.30;99.90
4787;DHT22;62338;48.832;9.422;2023-03-12T06:09:06;1.30;99.90
4787;DHT22;62338;48.832;9.422;2023-03-12T06:11:09;1.30;99.90
4787;DHT22;62338;48.832;9.422;2023-03-12T06:13:11;1.40;1.00
4787;DHT22;62338;48.832;9.422;2023-03-12T06:15:13;1.40;1.00
4787;DHT22;62338;48.832;9.422;2023-03-12T06:17:15;1.40;1.00
4787;DHT22;62338;48.832;9.422;2023-03-12T06:19:16;1.40;80.40
4787;DHT22;62338;48.832;9.422;2023-03-12T06:21:23;1.40;81.20
4787;DHT22;62338;48.832;9.422;2023-03-12T06:23:26;1.50;99.90
4787;DHT22;62338;48.832;9.422;2023-03-12T06:25:27;1.50;1.00
4787;DHT22;62338;48.832;9.422;2023-03-12T06:27:29;1.50;1.00
4787;DHT22;62338;48.832;9.422;2023-03-12T06:29:31;1.50;1.00
4787;DHT22;62338;48.832;9.422;2023-03-12T06:31:33;1.50;1.00
4787;DHT22;62338;48.832;9.422;2023-03-12T06:33:39;1.50;1.00
4787;DHT22;62338;48.832;9.422;2023-03-12T06:35:41;1.50;1.00
4787;DHT22;62338;48.832;9.422;2023-03-12T06:37:43;1.50;1.00
4787;DHT22;62338;48.832;9.422;2023-03-12T06:39:44;1.40;1.00
4787;DHT22;62338;48.832;9.422;2023-03-12T06:41:46;1.40;1.00
4787;DHT22;62338;48.832;9.422;2023-03-12T06:43:48;1.40;1.00
4787;DHT22;62338;48.832;9.422;2023-03-12T06:45:50;1.40;1.00
4787;DHT22;62338;48.832;9.422;2023-03-12T06:47:52;1.30;4.00
4787;DHT22;62338;48.832;9.422;2023-03-12T06:49:53;1.30;99.90
4787;DHT22;62338;48.832;9.422;2023-03-12T06:51:56;1.30;99.90
4787;DHT22;62338;48.832;9.422;2023-03-12T06:53:57;1.30;99.90
4787;DHT22;62338;48.832;9.422;2023-03-12T06:56:03;1.30;1.00
4787;DHT22;62338;48.832;9.422;2023-03-12T06:58:05;1.20;1.00
4787;DHT22;62338;48.832;9.422;2023-03-12T07:00:07;1.20;1.00
4787;DHT22;62338;48.832;9.422;2023-03-12T07:02:10;1.20;1.00
4787;DHT22;62338;48.832;9.422;2023-03-12T07:04:12;1.20;1.00
4787;DHT22;62338;48.832;9.422;2023-03-12T07:06:17;1.20;1.00
4787;DHT22;62338;48.832;9.422;2023-03-12T07:08:19;1.10;1.00
4787;DHT22;62338;48.832;9.422;2023-03-12T07:10:20;1.10;1.00
4787;DHT22;62338;48.832;9.422;2023-03-12T07:12:22;1.00;1.00
4787;DHT22;62338;48.832;9.422;2023-03-12T07:14:24;1.00;1.00
4787;DHT22;62338;48.832;9.422;2023-03-12T07:16:26;0.90;1.00
4787;DHT22;62338;48.832;9.422;2023-03-12T07:18:28;0.90;1.00
4787;DHT22;62338;48.832;9.422;2023-03-12T07:20:30;0.80;29.00
4787;DHT22;62338;48.832;9.422;2023-03-12T07:22:32;0.90;64.70
4787;DHT22;62338;48.832;9.422;2023-03-12T07:24:34;0.90;99.90
4787;DHT22;62338;48.832;9.422;2023-03-12T07:26:35;0.90;99.90
4787;DHT22;62338;48.832;9.422;2023-03-12T07:28:37;0.90;99.90
4787;DHT22;62338;48.832;9.422;2023-03-12T07:30:39;1.00;99.90
4787;DHT22;62338;48.832;9.422;2023-03-12T07:32:41;0.90;99.90
4787;DHT22;62338;48.832;9.422;2023-03-12T07:34:44;1.00;99.90
4787;DHT22;62338;48.832;9.422;2023-03-12T07:36:45;1.10;99.90
4787;DHT22;62338;48.832;9.422;2023-03-12T07:38:47;1.10;99.90
4787;DHT22;62338;48.832;9.422;2023-03-12T07:40:54;1.20;99.90
4787;DHT22;62338;48.832;9.422;2023-03-12T07:42:57;1.20;99.90
4787;DHT22;62338;48.832;9.422;2023-03-12T07:44:59;1.30;99.90
4787;DHT22;62338;48.832;9.422;2023-03-12T07:47:01;1.40;99.90
4787;DHT22;62338;48.832;9.422;2023-03-12T07:49:22;1.40;99.90
4787;DHT22;62338;48.832;9.422;2023-03-12T07:51:24;1.50;99.90
4787;DHT22;62338;48.832;9.422;2023-03-12T07:53:26;1.50;99.90
4787;DHT22;62338;48.832;9.422;2023-03-12T07:55:28;1.60;99.90
4787;DHT22;62338;48.832;9.422;2023-03-12T07:57:31;1.60;99.90
4787;DHT22;62338;48.832;9.422;2023-03-12T07:59:32;1.70;99.90
4787;DHT22;62338;48.832;9.422;2023-03-12T08:01:34;1.80;99.90
4787;DHT22;62338;48.832;9.422;2023-03-12T08:03:36;1.80;99.90
4787;DHT22;62338;48.832;9.422;2023-03-12T08:05:39;1.90;99.90
4787;DHT22;62338;48.832;9.422;2023-03-12T08:07:41;1.90;99.90
4787;DHT22;62338;48.832;9.422;2023-03-12T08:09:43;1.90;99.90
4787;DHT22;62338;48.832;9.422;2023-03-12T08:11:46;2.00;99.90
4787;DHT22;62338;48.832;9.422;2023-03-12T08:13:48;2.00;99.90
4787;DHT22;62338;48.832;9.422;2023-03-12T08:15:51;2.00;99.90
4787;DHT22;62338;48.832;9.422;2023-03-12T08:17:53;2.10;99.90
4787;DHT22;62338;48.832;9.422;2023-03-12T08:19:55;2.20;99.90
4787;DHT22;62338;48.832;9.422;2023-03-12T08:21:57;2.20;99.90
4787;DHT22;62338;48.832;9.422;2023-03-12T08:23:58;2.20;99.90
4787;DHT22;62338;48.832;9.422;2023-03-12T08:26:00;2.20;99.90
4787;DHT22;62338;48.832;9.422;2023-03-12T08:28:03;2.20;99.90
4787;DHT22;62338;48.832;9.422;2023-03-12T08:30:05;2.30;99.90
4787;DHT22;62338;48.832;9.422;2023-03-12T08:32:07;2.40;99.90
4787;DHT22;62338;48.832;9.422;2023-03-12T08:34:11;2.40;99.90
4787;DHT22;62338;48.832;9.422;2023-03-12T08:36:13;2.40;99.90
4787;DHT22;62338;48.832;9.422;2023-03-12T08:38:15;2.40;99.90
4787;DHT22;62338;48.832;9.422;2023-03-12T08:40:17;2.40;99.90
4787;DHT22;62338;48.832;9.422;2023-03-12T08:42:19;2.40;99.90
4787;DHT22;62338;48.832;9.422;2023-03-12T08:44:24;2.40;99.90
4787;DHT22;62338;48.832;9.422;2023-03-12T08:46:26;2.50;99.90
4787;DHT22;62338;48.832;9.422;2023-03-12T08:48:40;2.50;99.90
4787;DHT22;62338;48.832;9.422;2023-03-12T08:50:46;2.60;99.90
4787;DHT22;62338;48.832;9.422;2023-03-12T08:52:47;2.60;99.90
4787;DHT22;62338;48.832;9.422;2023-03-12T08:54:49;2.50;99.90
4787;DHT22;62338;48.832;9.422;2023-03-12T08:56:51;2.50;99.90
4787;DHT22;62338;48.832;9.422;2023-03-12T08:58:53;2.50;99.90
4787;DHT22;62338;48.832;9.422;2023-03-12T09:00:56;2.50;99.90
4787;DHT22;62338;48.832;9.422;2023-03-12T09:02:58;2.60;99.90
4787;DHT22;62338;48.832;9.422;2023-03-12T09:04:59;2.70;99.90
4787;DHT22;62338;48.832;9.422;2023-03-12T09:07:01;2.80;99.90
4787;DHT22;62338;48.832;9.422;2023-03-12T09:09:04;2.90;99.90
4787;DHT22;62338;48.832;9.422;2023-03-12T09:11:07;2.80;99.90
4787;DHT22;62338;48.832;9.422;2023-03-12T09:13:09;2.90;99.90
4787;DHT22;62338;48.832;9.422;2023-03-12T09:15:11;2.80;99.90
4787;DHT22;62338;48.832;9.422;2023-03-12T09:17:13;2.90;99.90
4787;DHT22;62338;48.832;9.422;2023-03-12T09:19:15;2.90;99.90
4787;DHT22;62338;48.832;9.422;2023-03-12T09:21:17;3.00;99.90
4787;DHT22;62338;48.832;9.422;2023-03-12T09:23:18;3.10;99.90
4787;DHT22;62338;48.832;9.422;2023-03-12T09:25:20;3.20;99.90
4787;DHT22;62338;48.832;9.422;2023-03-12T09:27:24;3.20;99.90
4787;DHT22;62338;48.832;9.422;2023-03-12T09:29:25;3.30;99.90
4787;DHT22;62338;48.832;9.422;2023-03-12T09:31:27;3.40;99.90
4787;DHT22;62338;48.832;9.422;2023-03-12T09:33:29;3.50;99.90
4787;DHT22;62338;48.832;9.422;2023-03-12T09:35:31;3.50;99.90
4787;DHT22;62338;48.832;9.422;2023-03-12T09:37:33;3.60;99.90
4787;DHT22;62338;48.832;9.422;2023-03-12T09:39:35;3.70;99.90
4787;DHT22;62338;48.832;9.422;2023-03-12T09:41:39;3.80;99.90
4787;DHT22;62338;48.832;9.422;2023-03-12T09:43:48;3.80;99.90
4787;DHT22;62338;48.832;9.422;2023-03-12T09:45:51;3.80;99.90
4787;DHT22;62338;48.832;9.422;2023-03-12T09:47:58;3.90;99.90
4787;DHT22;62338;48.832;9.422;2023-03-12T09:50:46;4.10;99.90
4787;DHT22;62338;48.832;9.422;2023-03-12T09:53:04;4.30;99.90
4787;DHT22;62338;48.832;9.422;2023-03-12T09:55:16;4.20;99.90
4787;DHT22;62338;48.832;9.422;2023-03-12T09:57:23;4.20;99.90
4787;DHT22;62338;48.832;9.422;2023-03-12T09:59:25;4.30;99.90
4787;DHT22;62338;48.832;9.422;2023-03-12T10:06:32;4.60;99.90
4787;DHT22;62338;48.832;9.422;2023-03-12T10:11:18;4.80;99.90
4787;DHT22;62338;48.832;9.422;2023-03-12T10:15:51;5.10;99.90
4787;DHT22;62338;48.832;9.422;2023-03-12T10:23:42;5.40;99.90
4787;DHT22;62338;48.832;9.422;2023-03-12T10:25:51;5.70;99.90
4787;DHT22;62338;48.832;9.422;2023-03-12T10:27:58;6.00;99.90
4787;DHT22;62338;48.832;9.422;2023-03-12T10:30:12;6.20;99.90
4787;DHT22;62338;48.832;9.422;2023-03-12T10:32:24;6.20;99.90
4787;DHT22;62338;48.832;9.422;2023-03-12T10:34:37;6.20;99.90
4787;DHT22;62338;48.832;9.422;2023-03-12T10:36:40;6.10;99.90
4787;DHT22;62338;48.832;9.422;2023-03-12T10:38:42;6.10;99.90
4787;DHT22;62338;48.832;9.422;2023-03-12T10:40:44;6.10;99.90
4787;DHT22;62338;48.832;9.422;2023-03-12T10:42:47;6.10;99.90
4787;DHT22;62338;48.832;9.422;2023-03-12T10:44:59;6.20;99.90
4787;DHT22;62338;48.832;9.422;2023-03-12T10:47:37;6.30;99.90
4787;DHT22;62338;48.832;9.422;2023-03-12T10:49:39;6.20;99.90
4787;DHT22;62338;48.832;9.422;2023-03-12T10:54:21;6.30;99.90
4787;DHT22;62338;48.832;9.422;2023-03-12T10:56:23;6.40;99.90
4787;DHT22;62338;48.832;9.422;2023-03-12T10:58:25;6.40;99.90
4787;DHT22;62338;48.832;9.422;2023-03-12T11:00:32;6.30;99.90
4787;DHT22;62338;48.832;9.422;2023-03-12T11:02:42;6.20;99.90
4787;DHT22;62338;48.832;9.422;2023-03-12T11:04:50;6.20;99.90
4787;DHT22;62338;48.832;9.422;2023-03-12T11:09:18;6.00;99.90
4787;DHT22;62338;48.832;9.422;2023-03-12T11:11:30;5.90;99.90
4787;DHT22;62338;48.832;9.422;2023-03-12T11:13:40;5.90;99.90
4787;DHT22;62338;48.832;9.422;2023-03-12T11:15:42;5.80;99.90
4787;DHT22;62338;48.832;9.422;2023-03-12T11:17:44;5.80;99.90
4787;DHT22;62338;48.832;9.422;2023-03-12T11:19:46;5.90;99.90
4787;DHT22;62338;48.832;9.422;2023-03-12T11:22:00;5.90;99.90
4787;DHT22;62338;48.832;9.422;2023-03-12T11:24:13;5.90;99.90
4787;DHT22;62338;48.832;9.422;2023-03-12T11:26:20;6.00;99.90
4787;DHT22;62338;48.832;9.422;2023-03-12T11:28:27;6.10;99.90
4787;DHT22;62338;48.832;9.422;2023-03-12T11:30:37;6.10;99.90
4787;DHT22;62338;48.832;9.422;2023-03-12T11:32:47;6.10;99.90
4787;DHT22;62338;48.832;9.422;2023-03-12T11:34:50;6.20;99.90
4787;DHT22;62338;48.832;9.422;2023-03-12T11:39:36;6.40;99.90
4787;DHT22;62338;48.832;9.422;2023-03-12T11:43:55;7.30;99.90
4787;DHT22;62338;48.832;9.422;2023-03-12T11:48:42;8.00;99.90
4787;DHT22;62338;48.832;9.422;2023-03-12T11:53:55;7.90;99.90
4787;DHT22;62338;48.832;9.422;2023-03-12T12:01:16;8.30;99.90
4787;DHT22;62338;48.832;9.422;2023-03-12T12:10:36;8.90;99.90
4787;DHT22;62338;48.832;9.422;2023-03-12T12:17:26;8.50;99.90
4787;DHT22;62338;48.832;9.422;2023-03-12T12:22:33;8.10;99.90
4787;DHT22;62338;48.832;9.422;2023-03-12T12:27:21;7.80;99.90
4787;DHT22;62338;48.832;9.422;2023-03-12T12:32:03;7.60;99.90
4787;DHT22;62338;48.832;9.422;2023-03-12T12:36:35;7.60;99.90
4787;DHT22;62338;48.832;9.422;2023-03-12T12:38:41;7.60;99.90
4787;DHT22;62338;48.832;9.422;2023-03-12T12:40:53;7.60;99.90
4787;DHT22;62338;48.832;9.422;2023-03-12T12:45:09;7.70;99.90
4787;DHT22;62338;48.832;9.422;2023-03-12T12:47:18;7.80;99.90
4787;DHT22;62338;48.832;9.422;2023-03-12T12:49:49;8.10;99.90
4787;DHT22;62338;48.832;9.422;2023-03-12T12:52:02;8.40;99.90
4787;DHT22;62338;48.832;9.422;2023-03-12T12:56:50;8.60;99.90
4787;DHT22;62338;48.832;9.422;2023-03-12T12:59:17;8.50;99.90
4787;DHT22;62338;48.832;9.422;2023-03-12T13:01:13;8.50;99.90
4787;DHT22;62338;48.832;9.422;2023-03-12T13:03:18;8.50;99.90
4787;DHT22;62338;48.832;9.422;2023-03-12T13:07:36;8.60;99.90
4787;DHT22;62338;48.832;9.422;2023-03-12T13:10:05;8.60;99.90
4787;DHT22;62338;48.832;9.422;2023-03-12T13:14:36;8.80;99.90
4787;DHT22;62338;48.832;9.422;2023-03-12T13:16:42;8.80;99.90
4787;DHT22;62338;48.832;9.422;2023-03-12T13:21:23;8.80;97.20
4787;DHT22;62338;48.832;9.422;2023-03-12T13:26:02;8.90;50.40
4787;DHT22;62338;48.832;9.422;2023-03-12T13:34:44;8.70;73.20
4787;DHT22;62338;48.832;9.422;2023-03-12T13:36:50;8.70;57.30
4787;DHT22;62338;48.832;9.422;2023-03-12T13:41:03;8.80;78.70
4787;DHT22;62338;48.832;9.422;2023-03-12T13:45:27;9.00;90.20
4787;DHT22;62338;48.832;9.422;2023-03-12T13:47:35;9.30;40.90
4787;DHT22;62338;48.832;9.422;2023-03-12T13:52:08;9.90;21.40
4787;DHT22;62338;48.832;9.422;2023-03-12T13:54:16;10.70;1.00
4787;DHT22;62338;48.832;9.422;2023-03-12T13:56:28;11.00;1.00
4787;DHT22;62338;48.832;9.422;2023-03-12T13:58:30;10.60;1.00
4787;DHT22;62338;48.832;9.422;2023-03-12T14:00:59;10.20;1.00
4787;DHT22;62338;48.832;9.422;2023-03-12T14:03:13;10.00;1.00
4787;DHT22;62338;48.832;9.422;2023-03-12T14:05:17;10.00;1.00
4787;DHT22;62338;48.832;9.422;2023-03-12T14:10:57;10.20;1.00
4787;DHT22;62338;48.832;9.422;2023-03-12T14:13:04;10.40;1.00
4787;DHT22;62338;48.832;9.422;2023-03-12T14:15:17;10.50;1.00
4787;DHT22;62338;48.832;9.422;2023-03-12T14:17:27;10.50;1.00
4787;DHT22;62338;48.832;9.422;2023-03-12T14:19:32;10.40;1.00
4787;DHT22;62338;48.832;9.422;2023-03-12T14:21:37;10.40;1.00
4787;DHT22;62338;48.832;9.422;2023-03-12T14:23:49;10.40;1.00
4787;DHT22;62338;48.832;9.422;2023-03-12T14:25:56;10.50;1.00
4787;DHT22;62338;48.832;9.422;2023-03-12T14:28:01;10.50;1.00
4787;DHT22;62338;48.832;9.422;2023-03-12T14:32:18;10.30;1.00
4787;DHT22;62338;48.832;9.422;2023-03-12T14:34:26;10.10;1.00
4787;DHT22;62338;48.832;9.422;2023-03-12T14:36:44;10.00;1.00
4787;DHT22;62338;48.832;9.422;2023-03-12T14:38:48;9.90;1.00
4787;DHT22;62338;48.832;9.422;2023-03-12T14:40:59;9.80;1.00
4787;DHT22;62338;48.832;9.422;2023-03-12T14:43:27;9.70;1.00
4787;DHT22;62338;48.832;9.422;2023-03-12T14:45:29;9.60;1.00
4787;DHT22;62338;48.832;9.422;2023-03-12T14:47:42;9.30;1.00
4787;DHT22;62338;48.832;9.422;2023-03-12T14:49:45;9.00;41.90
4787;DHT22;62338;48.832;9.422;2023-03-12T14:51:47;8.70;99.90
4787;DHT22;62338;48.832;9.422;2023-03-12T14:53:49;8.50;99.90
4787;DHT22;62338;48.832;9.422;2023-03-12T14:58:26;8.30;99.90
4787;DHT22;62338;48.832;9.422;2023-03-12T15:00:28;8.40;99.90
4787;DHT22;62338;48.832;9.422;2023-03-12T15:02:30;8.50;99.90
4787;DHT22;62338;48.832;9.422;2023-03-12T15:04:32;8.70;99.90
4787;DHT22;62338;48.832;9.422;2023-03-12T15:06:51;9.00;99.90
4787;DHT22;62338;48.832;9.422;2023-03-12T15:08:55;9.20;99.90
4787;DHT22;62338;48.832;9.422;2023-03-12T15:10:58;9.20;99.90
4787;DHT22;62338;48.832;9.422;2023-03-12T15:13:00;9.20;68.60
4787;DHT22;62338;48.832;9.422;2023-03-12T15:15:08;9.20;29.10